Time;durP1;ratioP1;P1;durP2;ratioP2;P2;SDS_P1;SDS_P2;PMS_P1;PMS_P2;Temp;Humidity;BMP_temperature;BMP_pressure;BME280_temperature;BME280_humidity;BME280_pressure;Samples;Min_cycle;Max_cycle;Signal;HPM_P1;HPM_P2
2022/06/05 00:02:01;;;;;;;7.72;4.50;;;;;;;19.07;65.62;93914.09;5072104;28;20048;-51
2022/06/05 00:04:45;;;;;;;6.68;5.03;;;;;;;19.07;65.57;93900.19;5089329;28;21587;-53
2022/06/05 00:07:28;;;;;;;6.05;4.70;;;;;;;19.04;65.74;93898.38;5089527;28;20058;-49
2022/06/05 00:09:58;;;;;;;7.30;5.10;;;;;;;18.94;66.01;93894.09;5089625;28;20042;-50
2022/06/05 00:12:59;;;;;;;6.80;4.68;;;;;;;18.98;66.03;93886.34;5090303;28;20067;-51
2022/06/05 00:15:25;;;;;;;7.72;4.80;;;;;;;18.84;66.69;93876.69;5089094;28;20067;-48
2022/06/05 00:17:52;;;;;;;7.18;5.10;;;;;;;18.92;66.38;93875.09;5089521;28;20416;-46
2022/06/05 00:20:19;;;;;;;7.25;5.25;;;;;;;18.83;66.84;93871.56;5090020;28;20067;-52
2022/06/05 00:22:46;;;;;;;18.07;12.07;;;;;;;18.91;66.66;93867.22;5089797;28;20044;-46
2022/06/05 00:25:13;;;;;;;9.43;5.68;;;;;;;18.87;67.29;93863.84;5088844;28;20053;-52
2022/06/05 00:27:48;;;;;;;7.40;5.40;;;;;;;18.80;67.45;93851.06;5110298;28;20066;-50
2022/06/05 00:30:31;;;;;;;8.43;5.40;;;;;;;18.65;68.52;93853.72;5109983;28;20099;-47
2022/06/05 00:33:05;;;;;;;6.95;5.78;;;;;;;18.72;68.52;93858.94;5109668;28;20070;-47
2022/06/05 00:35:39;;;;;;;7.67;5.20;;;;;;;18.81;67.92;93854.59;5110583;28;20039;-47
2022/06/05 00:38:12;;;;;;;7.70;5.07;;;;;;;18.86;67.95;93848.41;5109478;28;20397;-47
2022/06/05 00:41:26;;;;;;;7.88;5.18;;;;;;;18.80;68.40;93847.50;5110167;28;20062;-53
2022/06/05 00:43:58;;;;;;;7.30;5.22;;;;;;;18.80;68.50;93853.06;5046280;28;20486;-46
2022/06/05 00:46:25;;;;;;;6.85;5.32;;;;;;;18.83;68.56;93847.31;5110096;28;20042;-48
2022/06/05 00:48:52;;;;;;;7.00;5.40;;;;;;;18.86;68.29;93848.41;5109613;28;20039;-48
2022/06/05 00:51:19;;;;;;;8.60;6.97;;;;;;;18.76;69.01;93836.53;5112859;28;20416;-51
2022/06/05 00:53:46;;;;;;;7.60;5.70;;;;;;;18.74;69.50;93852.91;5103193;28;20047;-48
2022/06/05 00:56:13;;;;;;;7.80;5.95;;;;;;;18.77;69.46;93846.41;5093266;28;20044;-51
2022/06/05 00:58:41;;;;;;;10.00;6.00;;;;;;;18.77;69.79;93857.50;5093826;28;20044;-47
2022/06/05 01:01:08;;;;;;;7.47;5.77;;;;;;;18.80;69.66;93858.63;5093074;28;20432;-52
2022/06/05 01:03:35;;;;;;;8.07;5.63;;;;;;;18.77;69.85;93846.41;5093619;28;20048;-49
2022/06/05 01:06:03;;;;;;;8.88;6.20;;;;;;;18.73;70.26;93838.25;5092881;28;20039;-48
2022/06/05 01:08:30;;;;;;;8.77;6.00;;;;;;;18.71;70.39;93828.81;5093770;28;20038;-56
2022/06/05 01:11:20;;;;;;;9.40;6.25;;;;;;;18.83;70.19;93825.06;5092608;28;20040;-48
2022/06/05 01:14:09;;;;;;;9.00;5.90;;;;;;;18.83;70.09;93819.50;5093705;28;20044;-50
2022/06/05 01:16:50;;;;;;;8.25;6.35;;;;;;;18.88;69.92;93807.75;5092693;28;20103;-55
2022/06/05 01:19:32;;;;;;;9.00;6.20;;;;;;;18.89;69.99;93802.97;5092258;28;21076;-51
2022/06/05 01:22:27;;;;;;;9.50;6.40;;;;;;;18.96;70.09;93799.84;5092563;28;20071;-51
2022/06/05 01:25:02;;;;;;;9.05;6.22;;;;;;;18.94;70.19;93786.41;5107607;28;20044;-48
2022/06/05 01:27:34;;;;;;;16.57;11.93;;;;;;;18.89;70.49;93775.16;5113949;28;20049;-47
2022/06/05 01:30:24;;;;;;;9.35;7.28;;;;;;;18.82;70.80;93775.53;5112894;28;20036;-50
2022/06/05 01:32:53;;;;;;;8.77;6.53;;;;;;;18.85;70.82;93764.19;5113492;28;20198;-50
2022/06/05 01:35:33;;;;;;;9.27;6.55;;;;;;;18.81;71.10;93766.38;5112527;28;20092;-50
2022/06/05 01:38:07;;;;;;;8.93;6.80;;;;;;;18.73;71.47;93754.84;5112747;28;20411;-49
2022/06/05 01:40:47;;;;;;;8.10;6.90;;;;;;;18.66;72.01;93760.75;5113598;28;20076;-51
2022/06/05 01:43:49;;;;;;;10.98;6.90;;;;;;;18.73;71.74;93746.50;5113035;28;20046;-51
2022/06/05 01:46:15;;;;;;;10.00;6.90;;;;;;;18.76;71.52;93739.22;5087791;28;20408;-53
2022/06/05 01:48:52;;;;;;;9.88;6.30;;;;;;;18.74;71.54;93725.03;5113425;28;20036;-50
2022/06/05 01:51:31;;;;;;;9.05;6.38;;;;;;;18.72;72.01;93714.38;5112017;28;20220;-49
2022/06/05 01:54:05;;;;;;;9.83;6.90;;;;;;;18.62;72.55;93717.69;5090924;28;20036;-52
2022/06/05 01:56:54;;;;;;;10.27;7.40;;;;;;;18.62;72.72;93714.91;5092833;28;20048;-52
2022/06/05 01:59:23;;;;;;;9.20;7.25;;;;;;;18.54;73.00;93709.69;5091441;28;20615;-50
2022/06/05 02:01:56;;;;;;;7.85;6.50;;;;;;;18.63;72.77;93710.88;5092086;28;20063;-52
2022/06/05 02:04:37;;;;;;;10.18;7.88;;;;;;;18.61;73.01;93711.34;5091620;28;20842;-54
2022/06/05 02:07:12;;;;;;;9.43;6.93;;;;;;;18.57;73.07;93691.31;5091792;28;20085;-50
2022/06/05 02:09:49;;;;;;;12.18;7.15;;;;;;;18.48;73.27;93686.59;5092504;28;20048;-51
2022/06/05 02:12:15;;;;;;;9.55;7.50;;;;;;;18.19;74.80;93684.44;5091920;28;20042;-50
2022/06/05 02:14:42;;;;;;;9.77;7.45;;;;;;;18.17;75.02;93679.34;5092501;28;20047;-52
2022/06/05 02:17:10;;;;;;;11.27;7.50;;;;;;;18.25;74.26;93667.88;5093736;28;20048;-54
2022/06/05 02:19:38;;;;;;;9.13;7.20;;;;;;;18.26;74.63;93667.41;5092981;28;20396;-49
2022/06/05 02:22:23;;;;;;;10.40;7.18;;;;;;;18.22;74.72;93663.28;5091200;28;20048;-48
2022/06/05 02:24:50;;;;;;;10.20;8.23;;;;;;;18.15;75.51;93661.63;5106488;28;20047;-47
2022/06/05 02:27:21;;;;;;;10.38;7.95;;;;;;;18.17;75.74;93651.59;5111319;28;20718;-53
2022/06/05 02:29:48;;;;;;;11.40;8.50;;;;;;;18.17;75.72;93640.47;5094121;28;20038;-50
2022/06/05 02:32:38;;;;;;;10.50;8.47;;;;;;;18.17;75.50;93634.91;5111744;28;20048;-53
2022/06/05 02:35:10;;;;;;;12.65;8.35;;;;;;;18.25;75.20;93635.34;5111690;28;20055;-49
2022/06/05 02:37:49;;;;;;;10.55;8.13;;;;;;;18.24;75.65;93631.00;5112275;28;20035;-47
2022/06/05 02:40:30;;;;;;;12.05;8.50;;;;;;;18.15;76.23;93612.41;5111780;28;20039;-55
2022/06/05 02:43:14;;;;;;;11.93;8.60;;;;;;;18.12;76.31;93618.13;5093541;28;20438;-51
2022/06/05 02:45:53;;;;;;;12.53;9.07;;;;;;;18.12;76.68;93629.25;5112119;28;20129;-51
2022/06/05 02:48:28;;;;;;;12.30;9.27;;;;;;;18.03;77.24;93632.84;5110768;28;20509;-53
2022/06/05 02:51:05;;;;;;;12.35;8.98;;;;;;;18.12;76.90;93623.69;5111481;28;20043;-49
2022/06/05 02:53:52;;;;;;;11.48;9.15;;;;;;;18.07;77.32;93624.31;5102751;28;20036;-48
2022/06/05 02:56:20;;;;;;;12.52;9.30;;;;;;;18.06;77.44;93626.34;5090441;28;20684;-54
2022/06/05 02:58:49;;;;;;;12.60;9.60;;;;;;;17.97;77.88;93629.19;5090493;28;20036;-51
2022/06/05 03:04:02;;;;;;;13.02;9.15;;;;;;;18.09;77.40;93644.06;5090392;28;20048;-52
2022/06/05 03:06:31;;;;;;;13.70;9.50;;;;;;;18.08;77.56;93651.63;5091534;28;20395;-48
2022/06/05 03:08:57;;;;;;;13.32;9.70;;;;;;;18.02;78.30;93647.94;5090776;28;20431;-50
2022/06/05 03:11:24;;;;;;;12.17;9.17;;;;;;;18.12;77.61;93643.13;5091124;28;20481;-47
2022/06/05 03:13:51;;;;;;;12.48;9.55;;;;;;;18.00;77.97;93652.44;5090013;28;20420;-50
2022/06/05 03:16:19;;;;;;;13.40;10.00;;;;;;;17.92;78.25;93661.09;5089867;28;21694;-46
2022/06/05 03:18:46;;;;;;;13.82;9.55;;;;;;;18.02;78.15;93672.94;5091149;28;20036;-50
2022/06/05 03:21:12;;;;;;;12.93;9.52;;;;;;;18.09;77.92;93678.16;5089993;28;20047;-50
2022/06/05 03:23:39;;;;;;;12.43;9.83;;;;;;;18.02;78.39;93695.16;5095254;28;20062;-46
2022/06/05 03:26:12;;;;;;;13.90;9.90;;;;;;;18.01;78.44;93695.63;5110412;28;20039;-47
2022/06/05 03:28:43;;;;;;;12.38;9.77;;;;;;;18.00;78.17;93705.97;5111560;28;20363;-50
2022/06/05 03:31:10;;;;;;;12.60;9.80;;;;;;;18.03;78.21;93712.56;5110528;28;20486;-52
2022/06/05 03:33:37;;;;;;;12.73;9.55;;;;;;;18.00;78.54;93707.97;5111121;28;20095;-51
2022/06/05 03:36:09;;;;;;;17.90;10.10;;;;;;;17.96;78.66;93699.81;5110041;28;20039;-52
2022/06/05 03:38:37;;;;;;;14.95;9.88;;;;;;;17.74;79.82;93692.44;5110690;28;20644;-50
2022/06/05 03:41:04;;;;;;;12.35;9.52;;;;;;;17.81;79.43;93691.38;5110414;28;20079;-51
2022/06/05 03:43:31;;;;;;;13.73;9.60;;;;;;;17.62;80.48;93685.09;5110851;28;20069;-49
2022/06/05 03:46:00;;;;;;;12.15;9.55;;;;;;;17.41;81.26;93684.06;5110514;28;20046;-50
2022/06/05 03:48:27;;;;;;;12.33;9.50;;;;;;;17.25;82.16;93704.59;5110990;28;20044;-51
2022/06/05 03:51:05;;;;;;;11.77;8.77;;;;;;;17.20;82.18;93702.44;5110412;28;20573;-50
2022/06/05 03:53:32;;;;;;;11.80;9.20;;;;;;;17.02;83.13;93691.34;5101553;28;20047;-51
2022/06/05 03:55:59;;;;;;;15.05;9.60;;;;;;;17.00;83.53;93699.38;5089786;28;20054;-47
2022/06/05 03:58:26;;;;;;;13.43;9.45;;;;;;;17.02;83.68;93689.34;5072146;28;20036;-50
2022/06/05 04:00:52;;;;;;;12.20;9.40;;;;;;;17.16;83.08;93704.59;5089766;28;20040;-53
2022/06/05 04:03:20;;;;;;;12.98;9.68;;;;;;;17.33;81.88;93710.59;5089977;28;20042;-50
2022/06/05 04:05:47;;;;;;;11.63;9.18;;;;;;;17.42;81.71;93715.34;5090071;28;20044;-50
2022/06/05 04:08:16;;;;;;;14.23;9.55;;;;;;;17.09;83.12;93724.31;5089579;28;20042;-47
2022/06/05 04:10:43;;;;;;;12.77;10.13;;;;;;;17.11;83.33;93739.25;5090041;28;20056;-50
2022/06/05 04:13:10;;;;;;;12.37;9.23;;;;;;;17.26;82.77;93733.84;5089336;28;20153;-51
2022/06/05 04:15:40;;;;;;;13.63;11.18;;;;;;;17.42;81.79;93746.63;5055674;28;20060;-48
2022/06/05 04:18:07;;;;;;;15.85;12.90;;;;;;;17.40;81.37;93774.06;5089276;28;20055;-53
2022/06/05 04:20:37;;;;;;;17.08;13.68;;;;;;;17.11;81.83;93791.19;5090208;28;20040;-46
2022/06/05 04:23:05;;;;;;;16.63;13.40;;;;;;;16.85;83.37;93826.72;5089125;28;20052;-61
2022/06/05 04:25:31;;;;;;;17.33;13.87;;;;;;;16.70;84.68;93906.84;5109921;28;20411;-48
2022/06/05 04:27:58;;;;;;;20.42;14.68;;;;;;;16.51;87.48;93986.31;5109755;28;20472;-47
2022/06/05 04:30:26;;;;;;;25.13;15.50;;;;;;;16.53;89.33;94030.97;5108740;28;20426;-52
2022/06/05 04:32:53;;;;;;;20.80;15.95;;;;;;;16.31;90.14;94056.66;5109705;28;20043;-47
2022/06/05 04:35:20;;;;;;;19.85;14.48;;;;;;;16.41;89.94;94079.66;5110012;28;20038;-55
2022/06/05 04:37:46;;;;;;;20.30;15.13;;;;;;;16.19;91.34;94004.88;5110138;28;20063;-48
2022/06/05 04:40:13;;;;;;;13.90;9.15;;;;;;;15.70;92.31;93983.22;5109597;28;20044;-46
2022/06/05 04:42:40;;;;;;;11.15;5.45;;;;;;;15.76;90.35;93928.91;5110325;28;20035;-48
2022/06/05 04:45:07;;;;;;;11.05;5.70;;;;;;;15.46;91.27;93874.97;5109333;28;20706;-52
2022/06/05 04:47:34;;;;;;;14.25;8.43;;;;;;;15.47;93.61;93885.56;5110272;28;20400;-49
2022/06/05 04:50:02;;;;;;;13.90;9.90;;;;;;;15.46;95.85;93842.56;5109407;28;20084;-47
2022/06/05 04:52:29;;;;;;;13.75;9.45;;;;;;;15.55;96.37;93826.06;5109517;28;20392;-54
2022/06/05 04:54:55;;;;;;;15.10;11.10;;;;;;;15.63;96.25;93834.06;5089241;28;20412;-50
2022/06/05 04:57:22;;;;;;;17.80;12.00;;;;;;;15.48;97.96;93829.06;5071410;28;20480;-46
2022/06/05 04:59:50;;;;;;;18.67;13.10;;;;;;;15.35;98.65;93837.41;5071621;28;20403;-49
2022/06/05 05:02:17;;;;;;;16.77;12.40;;;;;;;15.49;98.63;93861.03;5106145;28;20043;-55
2022/06/05 05:04:47;;;;;;;19.92;12.40;;;;;;;15.37;99.18;93867.38;5110082;28;20586;-50
2022/06/05 05:07:15;;;;;;;16.77;12.05;;;;;;;15.33;99.82;93856.44;5109331;28;20403;-51
2022/06/05 05:09:46;;;;;;;17.38;10.60;;;;;;;15.54;98.90;93829.25;5109898;28;20115;-52
2022/06/05 05:12:15;;;;;;;12.52;8.98;;;;;;;15.55;97.39;93806.69;5109311;28;20050;-49
2022/06/05 05:14:42;;;;;;;9.67;7.40;;;;;;;15.68;95.89;93805.84;5091522;28;20035;-49
2022/06/05 05:17:09;;;;;;;12.02;7.88;;;;;;;15.69;95.98;93768.63;5109051;28;20044;-51
2022/06/05 05:19:37;;;;;;;9.32;7.03;;;;;;;15.70;95.55;93767.44;5109827;28;20424;-51
2022/06/05 05:22:04;;;;;;;11.07;7.65;;;;;;;15.87;95.50;93759.69;5107711;28;20489;-47
2022/06/05 05:24:31;;;;;;;13.75;8.90;;;;;;;15.87;95.39;93754.16;5109421;28;20047;-52
2022/06/05 05:26:57;;;;;;;14.03;8.60;;;;;;;15.94;95.06;93745.59;5108916;28;20038;-49
2022/06/05 05:29:24;;;;;;;11.40;7.30;;;;;;;15.68;94.79;93737.44;5108577;28;20043;-51
2022/06/05 05:31:52;;;;;;;11.25;7.00;;;;;;;15.90;94.30;93733.91;5109565;28;20036;-50
2022/06/05 05:34:19;;;;;;;8.77;6.20;;;;;;;16.05;93.58;93734.88;5108523;28;20834;-49
2022/06/05 05:36:45;;;;;;;8.43;5.70;;;;;;;16.11;92.88;93732.28;5109725;28;20377;-51
2022/06/05 05:42:04;;;;;;;9.13;6.85;;;;;;;16.13;92.62;93757.50;5112912;28;20040;-49
2022/06/05 05:44:34;;;;;;;6.93;5.00;;;;;;;16.20;92.09;93760.00;5113211;28;20043;-51
2022/06/05 05:47:01;;;;;;;7.22;4.90;;;;;;;16.17;91.46;93755.38;5112727;28;20491;-48
2022/06/05 05:49:28;;;;;;;9.07;4.55;;;;;;;16.20;91.23;93764.75;5113026;28;20047;-50
2022/06/05 05:51:55;;;;;;;9.93;4.20;;;;;;;16.24;91.20;93755.09;5112714;28;20414;-51
2022/06/05 05:54:21;;;;;;;8.23;4.03;;;;;;;16.31;90.67;93752.03;5096639;28;20401;-50
2022/06/05 05:56:48;;;;;;;6.95;4.68;;;;;;;16.20;90.58;93751.72;5074548;28;20485;-53
2022/06/05 05:59:15;;;;;;;8.45;4.50;;;;;;;15.89;91.93;93746.19;5092114;28;20404;-50
2022/06/05 06:01:42;;;;;;;6.60;4.43;;;;;;;16.00;91.30;93734.69;5092496;28;20044;-48
2022/06/05 06:04:09;;;;;;;9.23;5.33;;;;;;;16.15;91.69;93749.53;5092122;28;20052;-49
2022/06/05 06:06:39;;;;;;;6.32;3.50;;;;;;;16.03;91.92;93756.69;5091264;28;20044;-49
2022/06/05 06:09:06;;;;;;;6.55;2.90;;;;;;;16.08;91.33;93763.66;5091863;28;20048;-51
2022/06/05 06:11:32;;;;;;;6.00;3.00;;;;;;;16.01;90.52;93773.00;5092044;28;20046;-47
2022/06/05 06:13:59;;;;;;;6.00;3.70;;;;;;;15.86;91.72;93778.31;5092066;28;20044;-53
2022/06/05 06:16:27;;;;;;;6.80;4.57;;;;;;;15.72;93.28;93781.59;5092080;28;20048;-52
2022/06/05 06:18:56;;;;;;;7.95;4.85;;;;;;;15.63;94.65;93792.59;5091687;28;20401;-53
2022/06/05 06:21:23;;;;;;;6.60;4.53;;;;;;;15.85;93.86;93809.19;5091905;28;20051;-50
2022/06/05 06:23:50;;;;;;;8.63;4.82;;;;;;;15.94;93.08;93801.72;5097917;28;20047;-49
2022/06/05 06:26:17;;;;;;;6.85;5.10;;;;;;;16.14;92.16;93804.13;5111460;28;20065;-51
2022/06/05 06:28:44;;;;;;;7.50;5.20;;;;;;;16.31;92.04;93809.41;5094081;28;20032;-55
2022/06/05 06:31:14;;;;;;;8.95;5.28;;;;;;;16.53;91.67;93821.19;5111921;28;20049;-53
2022/06/05 06:33:42;;;;;;;7.95;5.30;;;;;;;16.77;90.58;93826.19;5112254;28;20397;-50
2022/06/05 06:36:12;;;;;;;8.65;5.10;;;;;;;16.77;89.11;93829.72;5111532;28;20435;-50
2022/06/05 06:38:59;;;;;;;7.63;5.20;;;;;;;16.47;90.47;93831.34;5111589;28;20044;-49
2022/06/05 06:41:26;;;;;;;7.53;5.40;;;;;;;16.38;91.73;93831.31;5093897;28;20040;-51
2022/06/05 06:43:53;;;;;;;7.88;5.80;;;;;;;16.35;92.75;93821.13;5111949;28;20436;-53
2022/06/05 06:46:20;;;;;;;15.43;6.65;;;;;;;16.20;92.83;93826.47;5111846;28;20083;-49
2022/06/05 06:48:48;;;;;;;8.73;6.18;;;;;;;16.13;93.09;93818.41;5094084;28;20053;-52
2022/06/05 06:51:16;;;;;;;9.05;5.70;;;;;;;16.48;91.83;93815.47;5111236;28;20047;-58
2022/06/05 06:53:43;;;;;;;8.93;5.73;;;;;;;16.71;91.33;93803.84;5101167;28;20431;-53
2022/06/05 06:56:17;;;;;;;7.93;5.40;;;;;;;17.16;89.38;93807.97;5091033;28;20052;-50
2022/06/05 06:58:50;;;;;;;8.27;5.50;;;;;;;17.45;87.91;93811.53;5091688;28;20040;-53
2022/06/05 07:01:17;;;;;;;8.23;5.63;;;;;;;17.55;86.97;93807.53;5090567;28;20479;-56
2022/06/05 07:03:43;;;;;;;8.88;5.53;;;;;;;17.89;83.99;93803.66;5091149;28;20488;-48
2022/06/05 07:06:13;;;;;;;8.63;5.30;;;;;;;18.15;82.97;93809.59;5090932;28;20044;-52
2022/06/05 07:08:41;;;;;;;7.88;5.30;;;;;;;18.99;79.03;93793.31;5091412;28;20036;-48
2022/06/05 07:11:10;;;;;;;6.05;4.70;;;;;;;19.79;75.01;93799.22;5090778;28;20054;-51
2022/06/05 07:13:43;;;;;;;7.03;4.63;;;;;;;21.78;67.08;93806.44;5091281;28;20040;-55
2022/06/05 07:16:11;;;;;;;5.85;4.43;;;;;;;23.19;64.38;93802.03;5072488;28;20044;-53
2022/06/05 07:18:38;;;;;;;7.30;4.10;;;;;;;22.94;61.22;93796.00;5072469;28;20044;-52
2022/06/05 07:21:10;;;;;;;6.30;4.35;;;;;;;23.48;60.86;93798.06;5090442;28;20050;-52
2022/06/05 07:23:37;;;;;;;5.38;3.70;;;;;;;23.65;59.48;93795.34;5094632;28;20039;-52
2022/06/05 07:26:08;;;;;;;5.15;4.07;;;;;;;22.00;61.86;93797.53;5110926;28;20048;-50
2022/06/05 07:28:36;;;;;;;5.13;3.67;;;;;;;22.51;60.96;93798.75;5110803;28;20043;-57
2022/06/05 07:31:04;;;;;;;8.33;4.00;;;;;;;22.60;60.32;93795.78;5110582;28;20043;-54
2022/06/05 07:33:33;;;;;;;5.75;3.72;;;;;;;23.58;58.64;93790.22;5110922;28;20399;-51
2022/06/05 07:36:03;;;;;;;5.75;3.50;;;;;;;25.30;54.35;93795.69;5110606;28;20047;-54
2022/06/05 07:38:32;;;;;;;4.97;3.40;;;;;;;24.86;54.87;93802.16;5111024;28;20043;-54
2022/06/05 07:40:59;;;;;;;6.38;3.50;;;;;;;27.18;49.39;93807.31;5110398;28;20043;-52
2022/06/05 07:43:26;;;;;;;5.77;3.30;;;;;;;28.96;45.01;93812.44;5110653;28;20407;-56
2022/06/05 07:45:53;;;;;;;4.68;2.90;;;;;;;28.75;45.18;93796.06;5110409;28;20038;-54
2022/06/05 07:48:20;;;;;;;3.95;3.00;;;;;;;28.47;45.06;93791.63;5110558;28;20050;-55
2022/06/05 07:56:18;;;;;;;5.20;3.27;;;;;;;29.25;43.25;93785.22;5089181;28;20672;-52
2022/06/05 07:58:45;;;;;;;6.47;3.17;;;;;;;30.41;41.63;93796.00;5090331;28;20400;-55
2022/06/05 08:01:31;;;;;;;5.95;3.45;;;;;;;26.92;47.29;93805.00;5088721;28;20612;-56
2022/06/05 08:03:58;;;;;;;5.43;3.55;;;;;;;26.29;50.60;93801.88;5089669;28;20048;-52
2022/06/05 08:06:25;;;;;;;6.47;3.60;;;;;;;25.61;52.15;93796.59;5090022;28;20048;-57
2022/06/05 08:08:52;;;;;;;5.00;3.70;;;;;;;25.45;51.97;93794.63;5090007;28;20478;-51
2022/06/05 08:11:19;;;;;;;5.22;3.60;;;;;;;25.97;50.73;93796.72;5071093;28;20325;-54
2022/06/05 08:13:46;;;;;;;5.68;3.42;;;;;;;27.41;47.05;93799.41;5090241;28;20040;-53
2022/06/05 08:16:13;;;;;;;5.85;3.38;;;;;;;26.31;48.98;93810.56;5089621;28;20071;-56
2022/06/05 08:18:39;;;;;;;5.00;3.60;;;;;;;27.11;47.89;93811.47;5090064;28;20047;-53
2022/06/05 08:21:06;;;;;;;6.67;3.20;;;;;;;29.60;42.64;93817.19;5089513;28;20036;-52
2022/06/05 08:23:33;;;;;;;4.93;3.53;;;;;;;27.34;45.04;93819.72;5093347;28;20036;-51
2022/06/05 08:25:59;;;;;;;6.53;3.72;;;;;;;25.91;50.02;93827.66;5109784;28;20036;-52
2022/06/05 08:28:26;;;;;;;6.07;3.40;;;;;;;25.64;51.61;93837.72;5110141;28;20035;-50
2022/06/05 08:30:53;;;;;;;5.43;3.63;;;;;;;25.50;51.37;93833.19;5091906;28;20042;-48
2022/06/05 08:33:21;;;;;;;7.97;3.50;;;;;;;25.37;51.38;93830.91;5110028;28;20077;-58
2022/06/05 08:35:51;;;;;;;4.75;3.80;;;;;;;27.23;47.95;93818.56;5110279;28;20435;-55
2022/06/05 08:41:38;;;;;;;5.15;3.50;;;;;;;26.67;49.16;93797.28;5109515;28;20104;-54
2022/06/05 08:44:38;;;;;;;6.28;4.10;;;;;;;23.72;57.00;93806.03;5085662;28;20460;-53
2022/06/05 08:47:18;;;;;;;9.57;4.23;;;;;;;22.93;60.53;93817.59;5109547;28;20044;-52
2022/06/05 08:50:11;;;;;;;6.72;4.20;;;;;;;23.89;57.88;93806.91;5110171;28;20403;-52
2022/06/05 08:53:03;;;;;;;7.25;4.10;;;;;;;24.15;57.74;93814.34;5107358;28;20028;-50
2022/06/05 08:55:38;;;;;;;7.35;3.80;;;;;;;23.52;58.90;93827.38;5088727;28;20752;-56
2022/06/05 08:58:17;;;;;;;6.65;4.10;;;;;;;23.17;60.31;93826.94;5089394;28;20096;-51
2022/06/05 09:00:55;;;;;;;6.73;3.73;;;;;;;22.66;60.43;93834.97;5089511;28;20113;-54
2022/06/05 09:03:26;;;;;;;6.07;4.15;;;;;;;21.32;64.71;93842.16;5088722;28;20376;-56
2022/06/05 09:06:06;;;;;;;6.15;4.38;;;;;;;21.34;66.27;93839.66;5089147;28;20039;-51
2022/06/05 09:08:37;;;;;;;8.43;4.50;;;;;;;21.04;66.98;93838.22;5089198;28;20434;-51
2022/06/05 09:11:11;;;;;;;7.57;4.10;;;;;;;20.88;66.40;93853.47;5089058;28;20493;-52
2022/06/05 09:13:57;;;;;;;8.77;4.77;;;;;;;20.92;67.04;93876.34;5092708;28;20047;-52
2022/06/05 09:16:30;;;;;;;9.18;4.68;;;;;;;20.88;67.77;93886.94;5075278;28;20411;-56
2022/06/05 09:18:58;;;;;;;8.23;4.70;;;;;;;21.00;68.82;93887.88;5092850;28;20489;-54
2022/06/05 09:21:48;;;;;;;6.35;4.07;;;;;;;20.92;69.68;93891.06;5092880;28;20101;-48
2022/06/05 09:24:21;;;;;;;7.47;4.40;;;;;;;21.15;69.77;93906.13;5061893;28;20044;-51
2022/06/05 09:26:54;;;;;;;6.53;4.60;;;;;;;20.89;71.71;93902.44;5073068;28;20044;-51
2022/06/05 09:29:49;;;;;;;8.07;4.47;;;;;;;21.04;72.05;93903.16;5072325;28;20408;-52
2022/06/05 09:32:55;;;;;;;9.75;4.60;;;;;;;20.92;72.37;93910.59;5072653;28;20047;-55
2022/06/05 09:35:43;;;;;;;11.00;5.00;;;;;;;20.94;73.55;93910.13;5071752;28;21397;-49
2022/06/05 09:38:48;;;;;;;8.05;5.05;;;;;;;20.35;74.37;93920.00;5072263;28;20353;-52
2022/06/05 09:41:39;;;;;;;8.33;4.57;;;;;;;20.25;73.78;93921.34;5072530;28;20044;-53
2022/06/05 09:44:25;;;;;;;7.30;5.10;;;;;;;20.05;75.04;93926.81;5072296;28;20055;-50
2022/06/05 09:47:01;;;;;;;8.38;5.20;;;;;;;19.77;77.14;93938.16;5072158;28;20045;-50
2022/06/05 09:49:39;;;;;;;8.23;5.07;;;;;;;19.90;77.08;93935.09;5072381;28;20667;-52
2022/06/05 09:52:15;;;;;;;9.15;5.32;;;;;;;19.93;76.63;93929.34;5071811;28;20048;-52
2022/06/05 09:54:49;;;;;;;8.50;5.57;;;;;;;19.92;77.17;93927.84;5052389;28;20040;-50
2022/06/05 10:00:31;;;;;;;7.53;5.28;;;;;;;19.28;80.77;93920.66;5050971;28;20862;-51
2022/06/05 10:03:03;;;;;;;8.40;5.70;;;;;;;18.70;83.12;93905.88;5051646;28;20044;-48
2022/06/05 10:05:35;;;;;;;11.38;6.57;;;;;;;18.23;87.28;93884.25;5052370;28;20057;-54
2022/06/05 10:08:22;;;;;;;10.80;7.00;;;;;;;17.50;90.89;93844.19;5051613;28;20049;-51
2022/06/05 10:10:56;;;;;;;10.40;7.38;;;;;;;17.35;91.60;93819.84;5051947;28;20131;-53
2022/06/05 10:14:04;;;;;;;10.50;5.63;;;;;;;17.78;87.73;93812.41;5050797;28;21723;-51
2022/06/05 10:16:47;;;;;;;9.07;4.90;;;;;;;18.01;87.04;93832.47;5050082;28;21634;-50
2022/06/05 10:19:49;;;;;;;7.97;3.97;;;;;;;18.55;83.90;93824.41;5051660;28;20037;-49
2022/06/05 10:22:41;;;;;;;6.77;4.70;;;;;;;19.08;82.94;93840.56;5063210;28;20044;-51
2022/06/05 10:25:35;;;;;;;6.68;4.00;;;;;;;19.82;79.90;93830.91;5108341;28;20471;-50
2022/06/05 10:28:14;;;;;;;6.72;4.50;;;;;;;20.45;76.17;93839.88;5111592;28;20040;-48
2022/06/05 10:31:00;;;;;;;6.13;3.90;;;;;;;21.14;73.10;93831.28;5111968;28;20047;-52
2022/06/05 10:33:39;;;;;;;6.53;3.83;;;;;;;20.60;73.34;93842.66;5111395;28;20423;-50
2022/06/05 10:36:32;;;;;;;7.10;3.87;;;;;;;20.97;73.16;93852.56;5093465;28;20050;-51
2022/06/05 10:39:07;;;;;;;7.35;3.60;;;;;;;21.14;71.67;93842.44;5111771;28;20073;-49
2022/06/05 10:41:45;;;;;;;7.20;3.65;;;;;;;21.34;67.46;93841.69;5112106;28;20495;-53
2022/06/05 10:44:52;;;;;;;7.82;3.75;;;;;;;20.66;71.16;93829.56;5111670;28;20039;-52
2022/06/05 10:47:41;;;;;;;7.70;4.10;;;;;;;20.65;72.19;93819.69;5111077;28;20209;-52
2022/06/05 10:50:17;;;;;;;5.93;3.93;;;;;;;19.68;75.61;93835.16;5111669;28;20048;-51
2022/06/05 10:52:55;;;;;;;5.18;3.35;;;;;;;19.44;76.07;93833.19;5109189;28;20039;-51
2022/06/05 10:55:49;;;;;;;5.93;3.63;;;;;;;19.90;76.76;93834.84;5090717;28;20070;-50
2022/06/05 10:58:25;;;;;;;5.18;3.10;;;;;;;20.08;74.34;93833.91;5073006;28;20035;-52
2022/06/05 11:01:27;;;;;;;5.22;3.65;;;;;;;20.29;73.81;93848.72;5091513;28;20059;-51
2022/06/05 11:04:09;;;;;;;6.07;3.60;;;;;;;20.16;75.75;93857.34;5089965;28;21785;-53
2022/06/05 11:06:54;;;;;;;5.85;3.75;;;;;;;19.43;79.84;93848.34;5103375;28;20035;-50
2022/06/05 11:09:48;;;;;;;6.75;3.70;;;;;;;19.25;80.51;93842.91;5097569;28;20062;-52
2022/06/05 11:15:35;;;;;;;6.82;4.40;;;;;;;19.45;81.12;93842.31;5110484;28;20097;-52
2022/06/05 11:18:20;;;;;;;7.30;4.87;;;;;;;19.31;81.98;93832.66;5110996;28;20111;-53
2022/06/05 11:20:57;;;;;;;6.95;4.65;;;;;;;19.22;83.22;93821.63;5111105;28;20046;-53
2022/06/05 11:23:29;;;;;;;6.13;4.80;;;;;;;19.13;83.41;93814.84;5109828;28;20146;-55
2022/06/05 11:26:06;;;;;;;7.20;4.72;;;;;;;19.16;82.99;93838.19;5110867;28;20043;-52
2022/06/05 11:28:41;;;;;;;8.52;5.32;;;;;;;19.43;83.90;93840.00;5111066;28;20130;-51
2022/06/05 11:31:47;;;;;;;8.47;5.27;;;;;;;19.55;83.11;93824.28;5110805;28;20053;-51
2022/06/05 11:34:27;;;;;;;8.32;6.22;;;;;;;19.42;84.72;93827.34;5110111;28;20048;-51
2022/06/05 11:37:09;;;;;;;7.95;6.00;;;;;;;19.34;85.15;93832.50;5110205;28;20401;-57
2022/06/05 11:39:50;;;;;;;6.72;4.72;;;;;;;19.09;79.66;93817.03;5110544;28;20133;-48
2022/06/05 11:42:45;;;;;;;7.05;4.22;;;;;;;18.89;79.86;93825.19;5110515;28;20050;-48
2022/06/05 11:45:40;;;;;;;5.63;3.30;;;;;;;18.80;79.30;93839.94;5110389;28;20047;-52
2022/06/05 11:48:09;;;;;;;8.18;3.83;;;;;;;18.30;78.47;93815.25;5080693;28;20035;-51
2022/06/05 11:51:24;;;;;;;6.65;2.90;;;;;;;17.98;80.00;93822.28;5110558;28;20047;-50
2022/06/05 11:54:05;;;;;;;5.80;3.13;;;;;;;18.18;81.68;93855.09;5057981;28;20041;-50
2022/06/05 11:56:35;;;;;;;6.28;3.20;;;;;;;18.21;82.03;93868.06;5066747;28;20717;-59
2022/06/05 11:59:39;;;;;;;6.23;3.30;;;;;;;18.47;82.57;93874.00;5081949;28;20508;-51
2022/06/05 12:02:44;;;;;;;7.97;3.50;;;;;;;18.36;81.38;93879.28;5090143;28;20046;-52
2022/06/05 12:05:36;;;;;;;7.43;3.30;;;;;;;18.60;81.41;93882.16;5089775;28;20054;-50
2022/06/05 12:08:13;;;;;;;6.18;3.22;;;;;;;18.93;79.84;93893.31;5089800;28;20040;-54
2022/06/05 12:10:59;;;;;;;8.52;3.80;;;;;;;19.05;79.02;93891.53;5071914;28;20490;-51
2022/06/05 12:13:41;;;;;;;7.33;3.67;;;;;;;18.94;79.57;93885.75;5089312;28;20032;-55
2022/06/05 12:16:33;;;;;;;6.20;3.60;;;;;;;18.85;80.28;93885.78;5089445;28;20040;-52
2022/06/05 12:19:14;;;;;;;8.55;3.90;;;;;;;19.16;79.32;93891.81;5089724;28;20058;-54
2022/06/05 12:21:52;;;;;;;6.32;3.83;;;;;;;19.05;79.27;93894.31;5089494;28;20431;-53
2022/06/05 12:24:26;;;;;;;7.45;4.10;;;;;;;18.90;80.87;93899.06;5088919;28;20844;-52